NY29 weather

Schuyler Airport
Watkins Glen, New York, United States

Public forecast

Using degrees Fahrenheit for public forecast. Weather courtesy of forecast.io.

Closest aviation weather report (METAR) to Schuyler Airport

Closest report is Penn Yan Airport, 12.8 nm (23.6 km) NNW. Retrieved 2020/08/06 23:53 UTC (43 minutes ago):

KPEO 062353Z AUTO 03003KT 10SM CLR 22/11 A3014 RMK AO2 SLP202 T02220111 10239 20222 53002

Closest aviation forecast (TAF) to Schuyler Airport

Closest forecast is Elmira Corning Regional Airport, 17.6 nm (32.5 km) S. Retrieved 2020-08-07 00:33 UTC (3 minutes ago):

TAF KELM 062330Z 0700/0724 VRB03KT P6SM BKN070 FM071100 00000KT 4SM BR BKN015 FM071700 VRB04KT P6SM BKN025 TEMPO 0718/0722 6SM SHRA